• Join FlightAware (Why Join?)
  • Login
  • US Flag 
02:02AM EDT


 

Airport Tracker/Info


-or-


 

Live Flight TrackerFlight Track Log ✈ BER6299 ✈ 24-Apr-2013 ✈ EDDH / HAM - EDDM / MUC

Flight Track Log - Related Links

Times and Time Zones

All times are in EDT time to prevent confusion due to time zone crossing. See the BER6299 flight status page for this flight to view local times or setup timezone preferences in your user account.

Time Position Orientation Groundspeed Altitude Reporting Facility
EDT Latitude Longitude Course Direction KTS MPH feet Rate Location/Type
02:47AM 52.9171 10.2571 167° South  Level Estimated
02:48AM 52.8279 10.2900 167° South  Level Estimated
02:49AM 52.7386 10.3229 167° South  Level Estimated
02:50AM 52.6494 10.3556 167° South  Level Estimated
02:51AM 52.5602 10.3882 167° South  Level Estimated
02:52AM 52.4709 10.4206 168° South  Level Estimated
02:53AM 52.3817 10.4530 168° South  Level Estimated
02:54AM 52.2924 10.4852 168° South  Level Estimated
02:55AM 52.2032 10.5172 168° South  Level Estimated
02:56AM 52.1139 10.5491 168° South  Level Estimated
02:57AM 52.0246 10.5809 168° South  Level Estimated
02:58AM 51.9353 10.6126 168° South  Level Estimated
02:59AM 51.8460 10.6442 168° South  Level Estimated
03:00AM 51.7567 10.6756 168° South  Level Estimated
03:01AM 51.6674 10.7069 168° South  Level Estimated
03:02AM 51.5780 10.7381 168° South  Level Estimated
03:03AM 51.4887 10.7691 168° South  Level Estimated
03:04AM 51.3993 10.8000 168° South  Level Estimated
03:05AM 51.3100 10.8308 168° South  Level Estimated
03:06AM 51.2206 10.8615 168° South  Level Estimated
03:07AM 51.1312 10.8921 168° South  Level Estimated
03:08AM 51.0419 10.9226 168° South  Level Estimated
03:09AM 50.9525 10.9529 168° South  Level Estimated
03:10AM 50.8631 10.9831 168° South  Level Estimated
03:11AM 50.7737 11.0132 168° South  Level Estimated
03:12AM 50.6843 11.0432 168° South  Level Estimated
03:13AM 50.5949 11.0731 168° South  Level Estimated
03:14AM 50.5054 11.1028 168° South  Level Estimated
03:15AM 50.4160 11.1325 168° South  Level Estimated
03:16AM 50.3266 11.1620 168° South  Level Estimated
03:17AM 50.2371 11.1915 168° South  Level Estimated
03:18AM 50.1477 11.2208 168° South  Level Estimated
03:19AM 50.0582 11.2500 168° South  Level Estimated
03:20AM 49.9687 11.2791 168° South  Level Estimated
03:21AM 49.8793 11.3081 168° South  Level Estimated
03:22AM 49.7898 11.3370 168° South  Level Estimated
03:23AM 49.7003 11.3657 168° South  Level Estimated
03:24AM 49.6108 11.3944 168° South  Level Estimated
03:25AM 49.5213 11.4230 168° South  Level Estimated
03:26AM 49.4318 11.4514 168° South  Level Estimated
03:27AM 49.3423 11.4798 168° South  Level Estimated
03:28AM 49.2527 11.5080 168° South  Level Estimated
03:29AM 49.1632 11.5362 168° South  Level Estimated
03:30AM 49.0737 11.5642 168° South  Level Estimated
03:31AM 48.9841 11.5922 168° South  Level Estimated
03:32AM 48.8946 11.6201 168° South  Level Estimated
03:33AM 48.8050 11.6478 168° South  Level Estimated
03:34AM 48.7154 11.6755 168° South  Level Estimated
03:35AM 48.6259 11.7030 169° South  Level Estimated
03:36AM 48.5363 11.7305 169° South  Level Estimated
03:37AM 48.4467 11.7578 169° South  Level Estimated
03:38AM 48.3571 11.7851 169° South  Level Estimated
03:39AM 48.3538 11.7861 169° South  Level Estimated
03:40AM 48.3538 11.7861 318° Northwest  Level Estimated
03:41AM 48.3538 11.7861 318° Northwest  Level Estimated
03:42AM 48.3538 11.7861 318° Northwest  Level Estimated
03:43AM 48.3538 11.7861 318° Northwest  Level Estimated
03:44AM 48.3538 11.7861 318° Northwest  Level Estimated
03:45AM 48.3538 11.7861 318° Northwest  Level Estimated